logo
Rechercher aéroport 
image banner adimage banner adimage banner ad
image banner ad

LKCHOV - Chotesov

Situé à Chotěšov, Czech Republic

ICAO - , IATA -

Données fournies par Airmate  

Information générale

Coordonnées: N49°39'6" E13°11'23"
Élévation : 1207 feet MSL.
 
Voir autres Aéroports à Plzen Region

Données opérationnelles

Special qualification required
Heure actuelle UTC:
Heure actuelle locale:
Météo à : LKLN - Plzen/Line ( 7 km )
METAR: LKLN 282000Z AUTO 26002KT CAVOK 13/08 Q1019
Voir NOTAMs / SUP AIP / TFR affectant cet aéroport [VIEW]
Fréquences de communication: [VIEW]

Pistes:

Identifiant RWYQFULongueur (ft)Largeur (ft)SurfaceLDA (ft)
0984°180449ASPH1804
27264°180449ASPH1804

Coordonnées de l'aéroport

Adresse: Chotěšov Czech Republic

Vue satellite de LKCHOV